Terminal Aerodrome Forecast
Issued by NWS Binghamton, NY

Home | Current Version | Previous Version | Text Only | Print | Product List | Glossary On
Versions: 1 2 3 4 5 6 7 8 9 10 11 12 13 14 15 16 17 18 19 20 21 22
000
FTUS41 KBGM 312300 RRA
TAFAVP
TAF
KAVP 312342Z 0100/0124 32010G15KT P6SM FEW035
     FM010100 28004KT P6SM BKN040
     FM011700 28005KT 2SM -SN OVC015=

USA.gov is the U.S. government's official web portal to all federal, state and local government web resources and services.